createdAt,value
2018-07-10T00:01:29.681Z,98675.00
2018-07-10T00:04:16.613Z,98670.00
2018-07-10T00:07:04.126Z,98685.00
2018-07-10T00:10:45.241Z,98671.00
2018-07-10T00:13:13.654Z,98671.00
2018-07-10T00:15:42.083Z,98658.00
2018-07-10T00:18:10.224Z,98660.00
2018-07-10T00:20:39.765Z,98658.00
2018-07-10T00:23:09.225Z,98655.00
2018-07-10T00:25:38.711Z,98651.00
2018-07-10T00:28:07.898Z,98646.00
2018-07-10T00:30:37.196Z,98641.00
2018-07-10T00:33:05.628Z,98643.00
2018-07-10T00:35:34.043Z,98633.00
2018-07-10T00:38:13.917Z,98639.00
2018-07-10T00:40:42.349Z,98633.00
2018-07-10T00:43:12.066Z,98639.00
2018-07-10T00:45:40.768Z,98638.00
2018-07-10T00:48:09.252Z,98631.00
2018-07-10T00:50:38.815Z,98635.00
2018-07-10T00:53:07.939Z,98624.00
2018-07-10T00:55:36.976Z,98628.00
2018-07-10T00:58:05.416Z,98625.00
2018-07-10T01:00:35.246Z,98618.00
2018-07-10T01:03:03.661Z,98620.00
2018-07-10T01:05:32.809Z,98619.00
2018-07-10T01:08:01.286Z,98616.00
2018-07-10T01:10:29.716Z,98616.00
2018-07-10T01:12:58.142Z,98613.00
2018-07-10T01:15:27.570Z,98618.00
2018-07-10T01:17:58.083Z,98620.00
2018-07-10T01:20:26.499Z,98608.00
2018-07-10T01:22:55.364Z,98599.00
2018-07-10T01:25:24.971Z,98610.00
2018-07-10T01:27:53.670Z,98606.00
2018-07-10T01:30:22.087Z,98599.00
2018-07-10T01:32:50.499Z,98599.00
2018-07-10T01:35:18.909Z,98591.00
2018-07-10T01:37:47.364Z,98594.00
2018-07-10T01:40:15.777Z,98594.00
2018-07-10T01:42:44.193Z,98594.00
2018-07-10T01:45:12.597Z,98587.00
2018-07-10T01:47:41.005Z,98593.00
2018-07-10T01:50:10.024Z,98587.00
2018-07-10T01:52:39.043Z,98588.00
2018-07-10T01:55:08.003Z,98584.00
2018-07-10T01:57:37.119Z,98581.00
2018-07-10T02:00:05.547Z,98578.00
2018-07-10T02:02:34.028Z,98570.00
2018-07-10T02:05:02.673Z,98565.00
2018-07-10T02:07:31.143Z,98562.00
2018-07-10T02:09:59.562Z,98554.00
2018-07-10T02:12:27.993Z,98561.00
2018-07-10T02:14:56.406Z,98556.00
2018-07-10T02:17:24.849Z,98546.00
2018-07-10T02:19:53.272Z,98549.00
2018-07-10T02:22:21.690Z,98545.00
2018-07-10T02:24:50.120Z,98538.00
2018-07-10T02:27:18.536Z,98542.00
2018-07-10T02:29:46.949Z,98530.00
2018-07-10T02:32:15.371Z,98527.00
2018-07-10T02:34:43.787Z,98531.00
2018-07-10T02:37:12.201Z,98535.00
2018-07-10T02:39:40.612Z,98531.00
2018-07-10T02:42:10.094Z,98526.00
2018-07-10T02:44:38.645Z,98516.00
2018-07-10T02:47:07.073Z,98520.00
2018-07-10T02:49:35.500Z,98527.00
2018-07-10T02:52:08.057Z,98531.00
2018-07-10T02:54:38.595Z,98539.00
2018-07-10T02:57:09.288Z,98537.00
2018-07-10T02:59:41.345Z,98534.00
2018-07-10T03:02:18.912Z,98537.00
2018-07-10T03:04:48.229Z,98530.00
2018-07-10T03:07:18.046Z,98524.00
2018-07-10T03:09:47.170Z,98522.00
2018-07-10T03:12:16.471Z,98528.00
2018-07-10T03:14:45.146Z,98528.00
2018-07-10T03:17:17.003Z,98527.00
2018-07-10T03:19:45.431Z,98524.00
2018-07-10T03:22:14.413Z,98526.00
2018-07-10T03:24:43.170Z,98524.00
2018-07-10T03:27:11.583Z,98529.00
2018-07-10T03:29:39.992Z,98524.00
2018-07-10T03:32:09.426Z,98522.00
2018-07-10T03:34:38.215Z,98523.00
2018-07-10T03:37:07.927Z,98514.00
2018-07-10T03:39:38.559Z,98511.00
2018-07-10T03:42:07.765Z,98512.00
2018-07-10T03:44:36.268Z,98513.00
2018-07-10T03:47:05.609Z,98510.00
2018-07-10T03:49:34.021Z,98512.00
2018-07-10T03:52:03.028Z,98507.00
2018-07-10T03:54:33.035Z,98504.00
2018-07-10T03:57:03.074Z,98495.00
2018-07-10T03:59:32.173Z,98501.00
2018-07-10T04:02:00.866Z,98496.00
2018-07-10T04:04:29.323Z,98500.00
2018-07-10T04:06:57.801Z,98504.00
2018-07-10T04:09:26.246Z,98506.00
2018-07-10T04:11:54.804Z,98504.00
2018-07-10T04:14:24.102Z,98497.00
2018-07-10T04:16:53.544Z,98501.00
2018-07-10T04:19:23.139Z,98500.00
2018-07-10T04:21:54.647Z,98496.00
2018-07-10T04:24:23.464Z,98489.00
2018-07-10T04:27:33.476Z,98486.00
2018-07-10T04:30:09.029Z,98498.00
2018-07-10T04:32:39.357Z,98511.00
2018-07-10T04:35:09.134Z,98490.00
2018-07-10T04:37:40.120Z,98487.00
2018-07-10T04:40:09.448Z,98493.00
2018-07-10T04:42:44.707Z,98485.00
2018-07-10T04:45:14.469Z,98491.00
2018-07-10T04:47:49.923Z,98480.00
2018-07-10T04:50:21.774Z,98492.00
2018-07-10T04:52:59.344Z,98487.00
2018-07-10T04:55:28.356Z,98497.00
2018-07-10T04:58:30.034Z,98508.00
2018-07-10T05:01:01.378Z,98497.00
2018-07-10T05:03:31.101Z,98501.00
2018-07-10T05:06:01.230Z,98491.00
2018-07-10T05:08:29.706Z,98488.00
2018-07-10T05:10:59.194Z,98491.00
2018-07-10T05:13:28.498Z,98490.00
2018-07-10T05:16:01.308Z,98489.00
2018-07-10T05:18:30.286Z,98492.00
2018-07-10T05:20:59.708Z,98501.00
2018-07-10T05:23:28.131Z,98492.00
2018-07-10T05:25:57.170Z,98494.00
2018-07-10T05:28:26.762Z,98487.00
2018-07-10T05:30:58.544Z,98491.00
2018-07-10T05:33:26.951Z,98486.00
2018-07-10T05:35:55.802Z,98490.00
2018-07-10T05:38:43.518Z,98486.00
2018-07-10T05:41:15.615Z,98477.00
2018-07-10T05:43:49.222Z,98477.00
2018-07-10T05:46:18.853Z,98477.00
2018-07-10T05:48:56.846Z,98477.00
2018-07-10T05:51:28.259Z,98478.00
2018-07-10T05:53:56.694Z,98483.00
2018-07-10T05:56:25.125Z,98478.00
2018-07-10T05:58:53.724Z,98477.00
2018-07-10T06:01:22.240Z,98477.00
2018-07-10T06:03:50.804Z,98477.00
2018-07-10T06:06:19.225Z,98474.00
2018-07-10T06:08:47.647Z,98480.00
2018-07-10T06:11:16.067Z,98482.00
2018-07-10T06:13:44.478Z,98483.00
2018-07-10T06:16:13.753Z,98481.00
2018-07-10T06:18:42.338Z,98490.00
2018-07-10T06:21:10.738Z,98490.00
2018-07-10T06:23:42.014Z,98488.00
2018-07-10T06:26:11.630Z,98491.00
2018-07-10T06:28:52.234Z,98483.00
2018-07-10T06:31:23.027Z,98483.00
2018-07-10T06:34:07.997Z,98488.00
2018-07-10T06:36:43.548Z,98481.00
2018-07-10T06:39:13.975Z,98478.00
2018-07-10T06:42:00.301Z,98471.00
2018-07-10T06:44:28.705Z,98481.00
2018-07-10T06:46:59.819Z,98480.00
2018-07-10T06:49:30.999Z,98489.00
2018-07-10T06:52:09.028Z,98478.00
2018-07-10T06:55:18.912Z,98476.00
2018-07-10T06:57:50.766Z,98474.00
2018-07-10T07:00:19.206Z,98471.00
2018-07-10T07:02:47.639Z,98471.00
2018-07-10T07:05:16.067Z,98485.00
2018-07-10T07:07:44.568Z,98474.00
2018-07-10T07:10:14.201Z,98477.00
2018-07-10T07:12:43.408Z,98490.00
2018-07-10T07:15:13.624Z,98492.00
2018-07-10T07:17:44.268Z,98502.00
2018-07-10T07:20:12.726Z,98507.00
2018-07-10T07:22:41.170Z,98511.00
2018-07-10T07:25:09.583Z,98499.00
2018-07-10T07:27:39.210Z,98520.00
2018-07-10T07:30:08.275Z,98501.00
2018-07-10T07:32:37.097Z,98520.00
2018-07-10T07:35:05.579Z,98516.00
2018-07-10T07:37:37.061Z,98517.00
2018-07-10T07:40:05.526Z,98515.00
2018-07-10T07:42:33.946Z,98504.00
2018-07-10T07:45:02.503Z,98506.00
2018-07-10T07:47:31.162Z,98507.00
2018-07-10T07:49:59.568Z,98516.00
2018-07-10T07:52:31.960Z,98504.00
2018-07-10T07:55:01.656Z,98507.00
2018-07-10T07:57:30.090Z,98509.00
2018-07-10T07:59:58.532Z,98510.00
2018-07-10T08:02:27.036Z,98508.00
2018-07-10T08:04:55.570Z,98508.00
2018-07-10T08:07:24.492Z,98505.00
2018-07-10T08:09:54.163Z,98512.00
2018-07-10T08:12:23.360Z,98520.00
2018-07-10T08:14:52.368Z,98517.00
2018-07-10T08:17:21.978Z,98519.00
2018-07-10T08:19:50.409Z,98534.00
2018-07-10T08:22:18.837Z,98528.00
2018-07-10T08:24:47.252Z,98534.00
2018-07-10T08:27:15.682Z,98526.00
2018-07-10T08:29:44.099Z,98531.00
2018-07-10T08:32:12.522Z,98523.00
2018-07-10T08:34:40.932Z,98519.00
2018-07-10T08:37:09.954Z,98520.00
2018-07-10T08:39:39.370Z,98519.00
2018-07-10T08:42:08.933Z,98509.00
2018-07-10T08:44:38.143Z,98500.00
2018-07-10T08:47:08.462Z,98508.00
2018-07-10T08:49:38.488Z,98505.00
2018-07-10T08:52:09.726Z,98511.00
2018-07-10T08:54:39.341Z,98511.00
2018-07-10T08:57:08.924Z,98523.00
2018-07-10T08:59:39.002Z,98520.00
2018-07-10T09:02:07.610Z,98510.00
2018-07-10T09:04:36.029Z,98511.00
2018-07-10T09:07:05.137Z,98507.00
2018-07-10T09:09:33.553Z,98499.00
2018-07-10T09:12:02.003Z,98504.00
2018-07-10T09:14:30.414Z,98502.00
2018-07-10T09:16:58.841Z,98507.00
2018-07-10T09:19:28.051Z,98511.00
2018-07-10T09:22:07.043Z,98504.00
2018-07-10T09:24:45.384Z,98509.00
2018-07-10T09:27:16.650Z,98503.00
2018-07-10T09:29:45.261Z,98498.00
2018-07-10T09:32:13.677Z,98503.00
2018-07-10T09:34:42.497Z,98495.00
2018-07-10T09:37:15.130Z,98501.00
2018-07-10T09:39:43.569Z,98490.00
2018-07-10T09:42:12.378Z,98486.00
2018-07-10T09:44:40.792Z,98496.00
2018-07-10T09:47:09.318Z,98495.00
2018-07-10T09:49:38.896Z,98503.00
2018-07-10T09:52:07.906Z,98489.00
2018-07-10T09:54:37.201Z,98481.00
2018-07-10T09:57:05.601Z,98482.00
2018-07-10T09:59:34.006Z,98481.00
2018-07-10T10:02:07.735Z,98488.00
2018-07-10T10:04:36.164Z,98484.00
2018-07-10T10:07:04.581Z,98489.00
2018-07-10T10:09:32.985Z,98477.00
2018-07-10T10:12:01.398Z,98471.00
2018-07-10T10:14:29.944Z,98479.00
2018-07-10T10:16:58.372Z,98480.00
2018-07-10T10:19:27.286Z,98491.00
2018-07-10T10:21:55.713Z,98490.00
2018-07-10T10:24:24.167Z,98480.00
2018-07-10T10:26:52.572Z,98486.00
2018-07-10T10:29:21.010Z,98486.00
2018-07-10T10:31:49.422Z,98485.00
2018-07-10T10:34:17.829Z,98486.00
2018-07-10T10:36:46.242Z,98492.00
2018-07-10T10:39:15.009Z,98484.00
2018-07-10T10:41:43.430Z,98477.00
2018-07-10T10:44:11.861Z,98479.00
2018-07-10T10:46:40.281Z,98485.00
2018-07-10T10:49:09.441Z,98490.00
2018-07-10T10:51:39.045Z,98501.00
2018-07-10T10:54:07.953Z,98499.00
2018-07-10T10:56:37.194Z,98492.00
2018-07-10T10:59:05.613Z,98487.00
2018-07-10T11:01:34.017Z,98483.00
2018-07-10T11:04:02.580Z,98488.00
2018-07-10T11:06:31.303Z,98483.00
2018-07-10T11:09:00.409Z,98477.00
2018-07-10T11:11:29.648Z,98481.00
2018-07-10T11:13:58.093Z,98478.00
2018-07-10T11:16:26.530Z,98478.00
2018-07-10T11:19:01.967Z,98478.00
2018-07-10T11:22:11.572Z,98487.00
2018-07-10T11:24:48.131Z,98472.00
2018-07-10T11:28:21.164Z,98483.00
2018-07-10T11:30:49.585Z,98486.00
2018-07-10T11:33:18.034Z,98488.00
2018-07-10T11:35:46.469Z,98490.00
2018-07-10T11:38:14.955Z,98490.00
2018-07-10T11:40:45.463Z,98492.00
2018-07-10T11:43:14.273Z,98498.00
2018-07-10T11:45:42.758Z,98485.00
2018-07-10T11:48:11.249Z,98487.00
2018-07-10T11:50:39.848Z,98490.00
2018-07-10T11:53:09.406Z,98494.00
2018-07-10T11:55:37.916Z,98491.00
2018-07-10T11:58:07.919Z,98488.00
2018-07-10T12:00:37.052Z,98495.00
2018-07-10T12:03:06.233Z,98498.00
2018-07-10T12:05:35.142Z,98491.00
2018-07-10T12:08:03.576Z,98487.00
2018-07-10T12:10:33.508Z,98489.00
2018-07-10T12:13:01.949Z,98494.00
2018-07-10T12:15:30.609Z,98489.00
2018-07-10T12:17:59.684Z,98488.00
2018-07-10T12:20:40.812Z,98489.00
2018-07-10T12:23:10.670Z,98481.00
2018-07-10T12:25:43.659Z,98481.00
2018-07-10T12:28:13.289Z,98481.00
2018-07-10T12:30:41.716Z,98480.00
2018-07-10T12:33:10.301Z,98478.00
2018-07-10T12:35:39.849Z,98487.00
2018-07-10T12:38:09.330Z,98496.00
2018-07-10T12:40:38.805Z,98487.00
2018-07-10T12:43:07.941Z,98492.00
2018-07-10T12:45:36.622Z,98485.00
2018-07-10T12:48:05.063Z,98481.00
2018-07-10T12:50:33.494Z,98483.00
2018-07-10T12:53:02.021Z,98479.00
2018-07-10T12:55:30.446Z,98474.00
2018-07-10T12:57:58.921Z,98473.00
2018-07-10T13:00:28.740Z,98466.00
2018-07-10T13:02:57.478Z,98469.00
2018-07-10T13:05:29.634Z,98473.00
2018-07-10T13:07:58.041Z,98474.00
2018-07-10T13:10:26.456Z,98472.00
2018-07-10T13:12:54.982Z,98479.00
2018-07-10T13:15:23.424Z,98471.00
2018-07-10T13:17:52.030Z,98473.00
2018-07-10T13:20:20.938Z,98475.00
2018-07-10T13:22:49.670Z,98473.00
2018-07-10T13:25:18.073Z,98475.00
2018-07-10T13:27:47.295Z,98477.00
2018-07-10T13:30:15.842Z,98481.00
2018-07-10T13:32:45.303Z,98479.00
2018-07-10T13:35:13.759Z,98479.00
2018-07-10T13:37:44.401Z,98479.00
2018-07-10T13:40:12.925Z,98485.00
2018-07-10T13:42:53.097Z,98482.00
2018-07-10T13:45:22.630Z,98478.00
2018-07-10T13:47:51.046Z,98477.00
2018-07-10T13:50:22.552Z,98478.00
2018-07-10T13:52:51.574Z,98473.00
2018-07-10T13:55:19.989Z,98480.00
2018-07-10T13:57:57.497Z,98472.00
2018-07-10T14:00:26.057Z,98480.00
2018-07-10T14:02:55.223Z,98477.00
2018-07-10T14:05:24.593Z,98474.00
2018-07-10T14:07:53.235Z,98471.00
2018-07-10T14:10:21.998Z,98471.00
2018-07-10T14:12:50.467Z,98477.00
2018-07-10T14:15:19.701Z,98474.00
2018-07-10T14:17:48.362Z,98466.00
2018-07-10T14:20:16.899Z,98463.00
2018-07-10T14:22:45.408Z,98453.00
2018-07-10T14:25:13.993Z,98451.00
2018-07-10T14:27:42.493Z,98437.00
2018-07-10T14:30:11.081Z,98436.00
2018-07-10T14:32:39.908Z,98433.00
2018-07-10T14:35:09.055Z,98436.00
2018-07-10T14:37:38.305Z,98428.00
2018-07-10T14:40:07.204Z,98421.00
2018-07-10T14:42:35.635Z,98409.00
2018-07-10T14:45:05.155Z,98414.00
2018-07-10T14:47:34.050Z,98414.00
2018-07-10T14:50:03.446Z,98402.00
2018-07-10T14:52:33.647Z,98407.00
2018-07-10T14:55:02.123Z,98407.00
2018-07-10T14:57:30.671Z,98401.00
2018-07-10T14:59:59.277Z,98405.00
2018-07-10T15:02:27.881Z,98398.00
2018-07-10T15:04:56.467Z,98403.00
2018-07-10T15:07:25.359Z,98402.00
2018-07-10T15:09:54.313Z,98401.00
2018-07-10T15:12:23.074Z,98396.00
2018-07-10T15:14:51.665Z,98397.00
2018-07-10T15:17:25.469Z,98390.00
2018-07-10T15:19:54.282Z,98390.00
2018-07-10T15:22:24.537Z,98391.00
2018-07-10T15:24:53.087Z,98384.00
2018-07-10T15:27:21.513Z,98388.00
2018-07-10T15:29:50.050Z,98387.00
2018-07-10T15:32:18.676Z,98381.00
2018-07-10T15:34:47.299Z,98389.00
2018-07-10T15:37:15.735Z,98390.00
2018-07-10T15:39:44.207Z,98385.00
2018-07-10T15:42:12.662Z,98375.00
2018-07-10T15:44:41.083Z,98368.00
2018-07-10T15:47:11.129Z,98374.00
2018-07-10T15:49:39.574Z,98378.00
2018-07-10T15:52:09.435Z,98380.00
2018-07-10T15:54:38.613Z,98369.00
2018-07-10T15:57:08.834Z,98359.00
2018-07-10T15:59:38.416Z,98365.00
2018-07-10T16:02:08.202Z,98365.00
2018-07-10T16:04:37.892Z,98365.00
2018-07-10T16:07:07.947Z,98365.00
2018-07-10T16:09:37.859Z,98368.00
2018-07-10T16:12:08.035Z,98370.00
2018-07-10T16:14:38.048Z,98370.00
2018-07-10T16:17:15.750Z,98367.00
2018-07-10T16:19:46.334Z,98371.00
2018-07-10T16:22:24.516Z,98364.00
2018-07-10T16:24:55.206Z,98366.00
2018-07-10T16:27:28.068Z,98367.00
2018-07-10T16:29:56.886Z,98365.00
2018-07-10T16:32:25.712Z,98365.00
2018-07-10T16:34:54.163Z,98376.00
2018-07-10T16:37:22.670Z,98380.00
2018-07-10T16:39:51.104Z,98372.00
2018-07-10T16:42:25.151Z,98376.00
2018-07-10T16:44:53.907Z,98380.00
2018-07-10T16:47:28.071Z,98375.00
2018-07-10T16:49:59.580Z,98384.00
2018-07-10T16:52:38.779Z,98380.00
2018-07-10T16:55:09.449Z,98377.00
2018-07-10T16:57:39.252Z,98367.00
2018-07-10T17:00:08.757Z,98375.00
2018-07-10T17:02:37.950Z,98381.00
2018-07-10T17:05:07.143Z,98386.00
2018-07-10T17:07:35.798Z,98388.00
2018-07-10T17:10:04.442Z,98389.00
2018-07-10T17:12:33.057Z,98390.00
2018-07-10T17:15:01.737Z,98387.00
2018-07-10T17:17:30.406Z,98388.00
2018-07-10T17:19:58.878Z,98388.00
2018-07-10T17:22:27.405Z,98394.00
2018-07-10T17:24:56.302Z,98401.00
2018-07-10T17:27:34.514Z,98400.00
2018-07-10T17:30:04.357Z,98402.00
2018-07-10T17:32:33.703Z,98405.00
2018-07-10T17:35:02.541Z,98400.00
2018-07-10T17:37:31.347Z,98410.00
2018-07-10T17:40:04.987Z,98408.00
2018-07-10T17:42:34.788Z,98402.00
2018-07-10T17:45:03.951Z,98408.00
2018-07-10T17:47:32.569Z,98408.00
2018-07-10T17:50:01.202Z,98410.00
2018-07-10T17:52:29.808Z,98402.00
2018-07-10T17:54:58.395Z,98419.00
2018-07-10T17:57:28.412Z,98420.00
2018-07-10T17:59:59.060Z,98415.00
2018-07-10T18:02:27.706Z,98418.00
2018-07-10T18:04:56.359Z,98423.00
2018-07-10T18:07:25.153Z,98425.00
2018-07-10T18:09:53.710Z,98417.00
2018-07-10T18:12:22.253Z,98419.00
2018-07-10T18:14:50.698Z,98414.00
2018-07-10T18:17:19.509Z,98420.00
2018-07-10T18:19:48.275Z,98418.00
2018-07-10T18:22:17.204Z,98427.00
2018-07-10T18:24:45.790Z,98425.00
2018-07-10T18:27:14.898Z,98424.00
2018-07-10T18:29:53.551Z,98422.00
2018-07-10T18:32:24.244Z,98423.00
2018-07-10T18:34:58.379Z,98421.00
2018-07-10T18:37:26.841Z,98435.00
2018-07-10T18:39:55.264Z,98433.00
2018-07-10T18:42:23.998Z,98430.00
2018-07-10T18:44:52.266Z,98432.00
2018-07-10T18:47:20.732Z,98434.00
2018-07-10T18:49:51.338Z,98437.00
2018-07-10T18:52:26.665Z,98441.00
2018-07-10T18:54:57.142Z,98445.00
2018-07-10T18:57:49.878Z,98440.00
2018-07-10T19:00:25.789Z,98445.00
2018-07-10T19:03:01.730Z,98447.00
2018-07-10T19:05:30.167Z,98449.00
2018-07-10T19:07:58.633Z,98438.00
2018-07-10T19:10:27.190Z,98445.00
2018-07-10T19:12:56.026Z,98439.00
2018-07-10T19:15:24.567Z,98449.00
2018-07-10T19:17:52.983Z,98447.00
2018-07-10T19:20:21.613Z,98451.00
2018-07-10T19:22:57.259Z,98457.00
2018-07-10T19:25:25.687Z,98451.00
2018-07-10T19:27:57.570Z,98455.00
2018-07-10T19:31:02.146Z,98458.00
2018-07-10T19:33:31.198Z,98468.00
2018-07-10T19:35:59.736Z,98468.00
2018-07-10T19:38:28.204Z,98472.00
2018-07-10T19:40:56.961Z,98469.00
2018-07-10T19:43:25.749Z,98472.00
2018-07-10T19:45:54.983Z,98472.00
2018-07-10T19:48:23.739Z,98483.00
2018-07-10T19:50:52.224Z,98480.00
2018-07-10T19:53:20.962Z,98472.00
2018-07-10T19:55:50.041Z,98478.00
2018-07-10T19:58:33.220Z,98483.00
2018-07-10T20:01:16.130Z,98482.00
2018-07-10T20:04:08.125Z,98489.00
2018-07-10T20:06:38.818Z,98478.00
2018-07-10T20:09:15.584Z,98482.00
2018-07-10T20:12:20.722Z,98485.00
2018-07-10T20:15:01.366Z,98493.00
2018-07-10T20:17:32.706Z,98484.00
2018-07-10T20:20:13.940Z,98484.00
2018-07-10T20:22:58.677Z,98482.00
2018-07-10T20:25:34.416Z,98484.00
2018-07-10T20:28:20.932Z,98480.00
2018-07-10T20:31:03.070Z,98484.00
2018-07-10T20:33:46.730Z,98484.00
2018-07-10T20:36:21.163Z,98481.00
2018-07-10T20:38:49.675Z,98488.00
2018-07-10T20:41:20.098Z,98491.00
2018-07-10T20:43:52.074Z,98485.00
2018-07-10T20:46:21.031Z,98482.00
2018-07-10T20:48:57.362Z,98486.00
2018-07-10T20:51:33.480Z,98484.00
2018-07-10T20:56:20.674Z,98481.00
2018-07-10T20:58:54.525Z,98478.00
2018-07-10T21:01:29.225Z,98484.00
2018-07-10T21:04:01.808Z,98482.00
2018-07-10T21:06:39.280Z,98476.00
2018-07-10T21:09:10.614Z,98469.00
2018-07-10T21:12:16.964Z,98466.00
2018-07-10T21:14:54.203Z,98469.00
2018-07-10T21:17:32.321Z,98470.00
2018-07-10T21:20:05.810Z,98470.00
2018-07-10T21:23:15.257Z,98458.00
2018-07-10T21:25:52.709Z,98464.00
2018-07-10T21:28:33.108Z,98463.00
2018-07-10T21:31:47.064Z,98454.00
2018-07-10T21:34:18.844Z,98454.00
2018-07-10T21:39:05.186Z,98452.00
2018-07-10T21:41:45.077Z,98450.00
2018-07-10T21:46:35.946Z,98442.00
2018-07-10T21:49:16.579Z,98438.00
2018-07-10T21:51:49.666Z,98434.00
2018-07-10T21:54:18.353Z,98443.00
2018-07-10T21:56:46.931Z,98443.00
2018-07-10T21:59:17.073Z,98443.00
2018-07-10T22:01:52.502Z,98444.00
2018-07-10T22:04:22.723Z,98445.00
2018-07-10T22:06:52.433Z,98444.00
2018-07-10T22:09:22.389Z,98449.00
2018-07-10T22:11:51.076Z,98441.00
2018-07-10T22:14:19.618Z,98431.00
2018-07-10T22:16:48.068Z,98441.00
2018-07-10T22:19:21.686Z,98436.00
2018-07-10T22:21:50.125Z,98431.00
2018-07-10T22:24:19.229Z,98431.00
2018-07-10T22:26:48.204Z,98430.00
2018-07-10T22:29:16.658Z,98430.00
2018-07-10T22:31:50.659Z,98421.00
2018-07-10T22:34:19.166Z,98426.00
2018-07-10T22:36:47.583Z,98426.00
2018-07-10T22:39:16.292Z,98416.00
2018-07-10T22:41:44.853Z,98423.00
2018-07-10T22:44:13.328Z,98417.00
2018-07-10T22:46:42.699Z,98426.00
2018-07-10T22:49:13.533Z,98427.00
2018-07-10T22:51:42.456Z,98417.00
2018-07-10T22:54:10.931Z,98419.00
2018-07-10T22:56:40.033Z,98413.00
2018-07-10T22:59:09.596Z,98414.00
2018-07-10T23:01:39.201Z,98414.00
2018-07-10T23:04:08.657Z,98405.00
2018-07-10T23:06:38.280Z,98404.00
2018-07-10T23:09:07.810Z,98402.00
2018-07-10T23:11:36.249Z,98403.00
2018-07-10T23:14:05.608Z,98393.00
2018-07-10T23:16:38.370Z,98396.00
2018-07-10T23:19:07.904Z,98397.00
2018-07-10T23:21:38.799Z,98385.00
2018-07-10T23:24:08.843Z,98394.00
2018-07-10T23:26:39.095Z,98388.00
2018-07-10T23:29:07.994Z,98391.00
2018-07-10T23:31:37.116Z,98385.00
2018-07-10T23:34:15.603Z,98378.00
2018-07-10T23:36:55.138Z,98384.00
2018-07-10T23:39:29.833Z,98384.00
2018-07-10T23:42:09.158Z,98381.00
2018-07-10T23:44:43.808Z,98371.00
2018-07-10T23:47:23.308Z,98368.00
2018-07-10T23:49:58.906Z,98365.00
2018-07-10T23:52:47.287Z,98365.00
2018-07-10T23:55:15.747Z,98366.00
2018-07-10T23:57:44.599Z,98358.00
